Terminal Aerodrome Forecast
Issued by NWS

Home | Current Version | Previous Version | Text Only | Print | Product List | Glossary On
Versions: 1 2 3 4 5 6 7 8 9 10 11 12 13 14 15 16 17 18 19 20 21 22 23
000
FTUS46 KEKA 261720
TAFCEC
TAF
KCEC 261720Z 2618/2718 21014G20KT 6SM -SHRA SCT025 BKN035
      TEMPO 2618/2620 4SM -SHRA BKN025
     FM262000 21015G27KT 2SM RA BR SCT007 OVC015
     FM270000 26014G25KT 5SM -SHRA BKN025 OVC035
     FM270200 20012KT 6SM -SHRA BKN030
     FM270600 16008KT P6SM -SHRA SCT025 BKN035=

USA.gov is the U.S. government's official web portal to all federal, state and local government web resources and services.